createdAt,value
2022-12-16T00:01:58.989Z,-3.10
2022-12-16T00:04:27.585Z,-3.10
2022-12-16T00:06:56.068Z,-3.20
2022-12-16T00:09:24.861Z,-3.20
2022-12-16T00:11:53.158Z,-3.20
2022-12-16T00:14:23.286Z,-3.30
2022-12-16T00:16:51.608Z,-3.30
2022-12-16T00:19:21.709Z,-3.40
2022-12-16T00:21:50.025Z,-3.40
2022-12-16T00:24:20.325Z,-3.40
2022-12-16T00:26:48.592Z,-3.40
2022-12-16T00:29:17.581Z,-3.50
2022-12-16T00:31:48.234Z,-3.50
2022-12-16T00:34:18.052Z,-3.60
2022-12-16T00:36:47.761Z,-3.60
2022-12-16T00:39:16.526Z,-3.60
2022-12-16T00:41:44.715Z,-3.70
2022-12-16T00:44:13.264Z,-3.70
2022-12-16T00:46:41.485Z,-3.70
2022-12-16T00:49:10.335Z,-3.80
2022-12-16T00:51:38.659Z,-3.80
2022-12-16T00:54:08.648Z,-3.80
2022-12-16T00:56:37.021Z,-3.90
2022-12-16T00:59:05.633Z,-4.00
2022-12-16T01:01:34.059Z,-4.00
2022-12-16T01:04:02.611Z,-4.10
2022-12-16T01:06:30.911Z,-4.10
2022-12-16T01:08:59.502Z,-4.10
2022-12-16T01:11:29.061Z,-4.20
2022-12-16T01:13:57.720Z,-4.20
2022-12-16T01:16:26.178Z,-4.30
2022-12-16T01:18:56.407Z,-4.30
2022-12-16T01:21:24.746Z,-4.30
2022-12-16T01:23:55.051Z,-4.40
2022-12-16T01:26:23.399Z,-4.40
2022-12-16T01:28:53.616Z,-4.30
2022-12-16T01:31:24.663Z,-4.40
2022-12-16T01:33:53.544Z,-4.40
2022-12-16T01:36:22.106Z,-4.40
2022-12-16T01:38:51.038Z,-4.50
2022-12-16T01:41:20.460Z,-4.50
2022-12-16T01:43:49.154Z,-4.50
2022-12-16T01:46:23.772Z,-4.50
2022-12-16T01:48:57.692Z,-4.60
2022-12-16T01:51:29.905Z,-4.60
2022-12-16T01:54:02.645Z,-4.70
2022-12-16T01:56:34.087Z,-4.60
2022-12-16T01:59:03.533Z,-4.70
2022-12-16T02:01:33.274Z,-4.80
2022-12-16T02:04:04.925Z,-4.80
2022-12-16T02:06:33.855Z,-4.90
2022-12-16T02:09:06.412Z,-4.90
2022-12-16T02:12:01.499Z,-4.90
2022-12-16T02:14:48.149Z,-5.00
2022-12-16T02:17:23.081Z,-5.00
2022-12-16T02:20:43.021Z,-5.10
2022-12-16T02:23:58.606Z,-5.10
2022-12-16T02:26:56.727Z,-5.10
2022-12-16T02:29:51.886Z,-5.10
2022-12-16T02:32:29.371Z,-5.00
2022-12-16T02:35:04.551Z,-5.20
2022-12-16T02:37:42.262Z,-5.20
2022-12-16T02:40:18.775Z,-5.20
2022-12-16T02:42:51.561Z,-5.30
2022-12-16T02:45:25.412Z,-5.30
2022-12-16T02:47:55.725Z,-5.30
2022-12-16T02:50:27.212Z,-5.40
2022-12-16T02:52:56.914Z,-5.40
2022-12-16T02:55:34.198Z,-5.40
2022-12-16T02:58:14.089Z,-5.40
2022-12-16T03:00:54.612Z,-5.50
2022-12-16T03:03:31.446Z,-5.50
2022-12-16T03:06:03.130Z,-5.50
2022-12-16T03:08:35.409Z,-5.50
2022-12-16T03:11:06.829Z,-5.60
2022-12-16T03:13:40.925Z,-5.60
2022-12-16T03:16:12.156Z,-5.60
2022-12-16T03:18:45.887Z,-5.70
2022-12-16T03:21:17.025Z,-5.70
2022-12-16T03:23:52.009Z,-5.70
2022-12-16T03:26:27.318Z,-5.70
2022-12-16T03:29:02.406Z,-5.70
2022-12-16T03:31:37.874Z,-5.70
2022-12-16T03:34:16.417Z,-5.70
2022-12-16T03:36:49.027Z,-5.80
2022-12-16T03:39:20.819Z,-5.80
2022-12-16T03:41:51.352Z,-5.80
2022-12-16T03:44:20.889Z,-5.80
2022-12-16T03:46:49.320Z,-5.80
2022-12-16T03:49:19.190Z,-5.80
2022-12-16T03:51:47.542Z,-5.90
2022-12-16T03:54:16.175Z,-5.90
2022-12-16T03:56:44.761Z,-5.90
2022-12-16T03:59:13.996Z,-5.80
2022-12-16T04:01:43.189Z,-5.90
2022-12-16T04:04:11.916Z,-5.90
2022-12-16T04:06:41.523Z,-5.90
2022-12-16T04:09:10.116Z,-5.90
2022-12-16T04:11:55.896Z,-5.90
2022-12-16T04:14:41.755Z,-5.90
2022-12-16T04:17:32.080Z,-5.90
2022-12-16T04:20:18.264Z,-5.90
2022-12-16T04:23:05.092Z,-5.90
2022-12-16T04:25:36.400Z,-5.80
2022-12-16T04:28:05.139Z,-5.90
2022-12-16T04:30:35.695Z,-5.80
2022-12-16T04:33:24.280Z,-5.90
2022-12-16T04:36:10.312Z,-5.90
2022-12-16T04:38:57.454Z,-5.90
2022-12-16T04:41:43.569Z,-5.90
2022-12-16T04:44:29.232Z,-5.90
2022-12-16T04:47:15.790Z,-5.90
2022-12-16T04:50:01.523Z,-6.00
2022-12-16T04:52:47.629Z,-6.00
2022-12-16T04:55:35.024Z,-6.00
2022-12-16T04:58:21.777Z,-6.00
2022-12-16T05:01:08.083Z,-6.00
2022-12-16T05:03:54.551Z,-6.00
2022-12-16T05:06:40.938Z,-6.00
2022-12-16T05:16:53.930Z,-6.00
2022-12-16T05:19:40.109Z,-6.00
2022-12-16T05:22:25.699Z,-6.00
2022-12-16T05:25:11.870Z,-5.90
2022-12-16T05:27:57.908Z,-6.00
2022-12-16T05:30:44.328Z,-6.00
2022-12-16T05:33:32.358Z,-6.00
2022-12-16T05:36:18.648Z,-6.00
2022-12-16T05:39:04.430Z,-6.00
2022-12-16T05:41:50.406Z,-5.90
2022-12-16T05:44:36.347Z,-6.00
2022-12-16T05:47:22.568Z,-5.90
2022-12-16T05:50:10.016Z,-5.90
2022-12-16T05:52:56.024Z,-5.90
2022-12-16T05:55:42.417Z,-5.90
2022-12-16T05:58:28.866Z,-5.90
2022-12-16T06:01:14.716Z,-5.80
2022-12-16T06:04:00.738Z,-5.80
2022-12-16T06:06:47.833Z,-5.80
2022-12-16T06:09:33.978Z,-5.80
2022-12-16T06:12:19.603Z,-5.80
2022-12-16T06:15:05.808Z,-5.80
2022-12-16T06:17:51.396Z,-5.70
2022-12-16T06:20:36.538Z,-5.70
2022-12-16T06:23:29.030Z,-5.70
2022-12-16T06:26:15.385Z,-5.60
2022-12-16T06:29:01.433Z,-5.60
2022-12-16T06:31:47.452Z,-5.60
2022-12-16T06:34:33.314Z,-5.50
2022-12-16T06:37:19.796Z,-5.50
2022-12-16T06:40:07.028Z,-5.50
2022-12-16T06:43:04.713Z,-5.40
2022-12-16T06:45:50.681Z,-5.40
2022-12-16T06:48:37.031Z,-5.40
2022-12-16T06:51:23.240Z,-5.40
2022-12-16T06:54:09.229Z,-5.40
2022-12-16T06:56:56.195Z,-5.30
2022-12-16T06:59:42.272Z,-5.30
2022-12-16T07:02:29.718Z,-5.30
2022-12-16T07:05:16.440Z,-5.30
2022-12-16T07:08:07.015Z,-5.30
2022-12-16T07:10:53.103Z,-5.30
2022-12-16T07:13:43.006Z,-5.20
2022-12-16T07:16:29.193Z,-5.20
2022-12-16T07:19:14.958Z,-5.10
2022-12-16T07:22:01.136Z,-5.10
2022-12-16T07:24:46.921Z,-5.10
2022-12-16T07:27:33.110Z,-5.00
2022-12-16T07:30:20.365Z,-4.90
2022-12-16T07:33:22.840Z,-4.90
2022-12-16T07:36:09.035Z,-4.80
2022-12-16T07:38:55.165Z,-4.70
2022-12-16T07:41:41.067Z,-4.60
2022-12-16T07:44:27.215Z,-4.60
2022-12-16T07:47:14.229Z,-4.50
2022-12-16T07:50:00.176Z,-4.40
2022-12-16T07:52:46.055Z,-4.30
2022-12-16T07:55:32.292Z,-4.20
2022-12-16T07:58:18.053Z,-4.10
2022-12-16T08:01:07.814Z,-4.10
2022-12-16T08:03:56.642Z,-4.10
2022-12-16T08:06:42.637Z,-4.00
2022-12-16T08:09:28.730Z,-4.00
2022-12-16T08:12:14.723Z,-3.80
2022-12-16T08:15:00.355Z,-3.90
2022-12-16T08:17:46.502Z,-3.90
2022-12-16T08:20:33.826Z,-3.80
2022-12-16T08:23:19.708Z,-3.70
2022-12-16T08:26:05.325Z,-3.70
2022-12-16T08:28:51.162Z,-3.60
2022-12-16T08:31:37.004Z,-3.60
2022-12-16T08:34:22.987Z,-3.50
2022-12-16T08:37:10.381Z,-3.50
2022-12-16T08:40:25.729Z,-3.40
2022-12-16T08:43:05.494Z,-3.40
2022-12-16T08:45:56.929Z,-3.40
2022-12-16T08:48:42.719Z,-3.30
2022-12-16T08:51:28.540Z,-3.30
2022-12-16T08:54:15.796Z,-3.20
2022-12-16T08:57:01.571Z,-3.20
2022-12-16T08:59:47.592Z,-3.10
2022-12-16T09:02:34.868Z,-3.10
2022-12-16T09:05:20.682Z,-3.10
2022-12-16T09:08:06.598Z,-3.00
2022-12-16T09:10:53.531Z,-3.00
2022-12-16T09:13:41.481Z,-3.00
2022-12-16T09:16:27.590Z,-2.90
2022-12-16T09:19:22.282Z,-2.90
2022-12-16T09:22:08.336Z,-2.80
2022-12-16T09:24:54.926Z,-2.80
2022-12-16T09:27:43.245Z,-2.70
2022-12-16T09:30:29.875Z,-2.70
2022-12-16T09:33:15.637Z,-2.60
2022-12-16T09:36:01.941Z,-2.60
2022-12-16T09:38:47.918Z,-2.60
2022-12-16T09:41:45.579Z,-2.60
2022-12-16T09:44:41.409Z,-2.60
2022-12-16T09:47:40.191Z,-2.60
2022-12-16T09:50:37.246Z,-2.60
2022-12-16T09:53:25.453Z,-2.60
2022-12-16T09:56:11.784Z,-2.60
2022-12-16T09:59:02.411Z,-2.60
2022-12-16T10:01:54.694Z,-2.60
2022-12-16T10:04:43.065Z,-2.50
2022-12-16T10:07:35.632Z,-2.50
2022-12-16T10:10:35.441Z,-2.40
2022-12-16T10:13:27.516Z,-2.40
2022-12-16T10:16:23.614Z,-2.30
2022-12-16T10:19:24.179Z,-2.30
2022-12-16T10:22:19.691Z,-2.30
2022-12-16T10:25:15.667Z,-2.20
2022-12-16T10:28:06.886Z,-2.20
2022-12-16T10:30:55.785Z,-2.20
2022-12-16T10:33:46.417Z,-2.10
2022-12-16T10:36:37.479Z,-2.10
2022-12-16T10:39:35.797Z,-2.00
2022-12-16T10:42:23.665Z,-2.00
2022-12-16T10:45:13.862Z,-2.00
2022-12-16T10:47:59.595Z,-2.00
2022-12-16T10:50:46.063Z,-2.00
2022-12-16T10:53:31.708Z,-1.90
2022-12-16T10:56:37.600Z,-1.90
2022-12-16T10:59:26.645Z,-1.90
2022-12-16T11:02:17.073Z,-2.00
2022-12-16T11:05:04.089Z,-2.00
2022-12-16T11:07:53.244Z,-2.00
2022-12-16T11:10:56.169Z,-2.00
2022-12-16T11:13:44.723Z,-2.00
2022-12-16T11:16:35.043Z,-2.10
2022-12-16T11:19:21.871Z,-2.10
2022-12-16T11:22:19.458Z,-2.10
2022-12-16T11:25:22.061Z,-2.10
2022-12-16T11:28:09.237Z,-2.20
2022-12-16T11:30:55.708Z,-2.20
2022-12-16T11:33:44.317Z,-2.10
2022-12-16T11:36:35.112Z,-2.10
2022-12-16T11:39:23.443Z,-2.10
2022-12-16T11:42:12.872Z,-2.20
2022-12-16T11:45:04.136Z,-2.10
2022-12-16T11:47:56.777Z,-2.10
2022-12-16T11:50:45.375Z,-2.10
2022-12-16T11:53:47.451Z,-2.00
2022-12-16T11:56:37.845Z,-2.00
2022-12-16T11:59:30.856Z,-2.00
2022-12-16T12:02:21.937Z,-2.00
2022-12-16T12:05:09.019Z,-2.00
2022-12-16T12:08:00.118Z,-2.10
2022-12-16T12:11:04.173Z,-2.10
2022-12-16T12:14:05.462Z,-2.10
2022-12-16T12:17:03.263Z,-2.10
2022-12-16T12:20:02.510Z,-2.10
2022-12-16T12:22:54.771Z,-2.10
2022-12-16T12:25:49.379Z,-2.10
2022-12-16T12:28:46.800Z,-2.10
2022-12-16T12:31:45.705Z,-2.00
2022-12-16T12:34:41.419Z,-2.00
2022-12-16T12:37:36.132Z,-2.00
2022-12-16T12:40:38.312Z,-2.00
2022-12-16T12:43:33.103Z,-2.00
2022-12-16T12:46:37.814Z,-2.00
2022-12-16T12:49:32.352Z,-2.00
2022-12-16T12:52:24.974Z,-1.90
2022-12-16T12:55:19.654Z,-1.90
2022-12-16T12:58:08.662Z,-1.90
2022-12-16T13:01:00.920Z,-1.90
2022-12-16T13:03:52.528Z,-2.00
2022-12-16T13:06:39.451Z,-2.00
2022-12-16T13:09:42.144Z,-2.10
2022-12-16T13:12:47.310Z,-2.10
2022-12-16T13:15:55.119Z,-2.10
2022-12-16T13:18:43.664Z,-2.20
2022-12-16T13:22:09.056Z,-2.20
2022-12-16T13:25:00.053Z,-2.30
2022-12-16T13:28:02.988Z,-2.30
2022-12-16T13:30:51.415Z,-2.30
2022-12-16T13:33:46.627Z,-2.30
2022-12-16T13:36:45.734Z,-2.30
2022-12-16T13:39:49.725Z,-2.30
2022-12-16T13:43:13.019Z,-2.30
2022-12-16T13:46:02.164Z,-2.40
2022-12-16T13:48:54.738Z,-2.40
2022-12-16T13:52:26.299Z,-2.40
2022-12-16T13:55:24.942Z,-2.40
2022-12-16T13:58:20.585Z,-2.40
2022-12-16T14:01:16.445Z,-2.40
2022-12-16T14:04:06.235Z,-2.50
2022-12-16T14:06:56.437Z,-2.50
2022-12-16T14:09:48.822Z,-2.50
2022-12-16T14:12:50.911Z,-2.50
2022-12-16T14:15:46.047Z,-2.50
2022-12-16T14:18:43.774Z,-2.60
2022-12-16T14:21:36.161Z,-2.60
2022-12-16T14:24:26.709Z,-2.60
2022-12-16T14:27:14.302Z,-2.70
2022-12-16T14:30:01.974Z,-2.70
2022-12-16T14:32:51.660Z,-2.70
2022-12-16T14:35:40.335Z,-2.80
2022-12-16T14:38:40.391Z,-2.80
2022-12-16T14:41:29.891Z,-2.80
2022-12-16T14:44:15.877Z,-2.80
2022-12-16T14:47:01.633Z,-2.70
2022-12-16T14:49:48.997Z,-2.60
2022-12-16T14:52:37.074Z,-2.40
2022-12-16T14:55:34.998Z,-2.30
2022-12-16T14:58:37.776Z,-2.20
2022-12-16T15:01:31.385Z,-2.20
2022-12-16T15:04:18.995Z,-2.10
2022-12-16T15:07:10.905Z,-2.00
2022-12-16T15:09:59.677Z,-1.90
2022-12-16T15:12:53.522Z,-1.80
2022-12-16T15:15:47.750Z,-1.70
2022-12-16T15:18:38.063Z,-1.60
2022-12-16T15:21:25.967Z,-1.60
2022-12-16T15:24:14.252Z,-1.50
2022-12-16T15:27:08.717Z,-1.50
2022-12-16T15:29:59.060Z,-1.40
2022-12-16T15:32:48.717Z,-1.40
2022-12-16T15:35:49.519Z,-1.40
2022-12-16T15:38:43.809Z,-1.40
2022-12-16T15:41:40.947Z,-1.40
2022-12-16T15:44:34.147Z,-1.40
2022-12-16T15:47:20.415Z,-1.40
2022-12-16T15:50:07.793Z,-1.40
2022-12-16T15:52:57.138Z,-1.40
2022-12-16T15:55:49.272Z,-1.40
2022-12-16T15:58:57.510Z,-1.40
2022-12-16T16:01:45.378Z,-1.40
2022-12-16T16:04:39.251Z,-1.40
2022-12-16T16:07:34.581Z,-1.40
2022-12-16T16:10:34.294Z,-1.40
2022-12-16T16:13:20.306Z,-1.40
2022-12-16T16:16:08.088Z,-1.40
2022-12-16T16:18:53.806Z,-1.40
2022-12-16T16:21:40.442Z,-1.50
2022-12-16T16:24:27.203Z,-1.50
2022-12-16T16:27:13.870Z,-1.50
2022-12-16T16:29:59.504Z,-1.60
2022-12-16T16:32:48.308Z,-1.60
2022-12-16T16:35:34.422Z,-1.70
2022-12-16T16:38:35.139Z,-1.70
2022-12-16T16:41:21.387Z,-1.70
2022-12-16T16:44:07.683Z,-1.70
2022-12-16T16:46:56.264Z,-1.70
2022-12-16T16:49:49.487Z,-1.70
2022-12-16T16:52:37.779Z,-1.70
2022-12-16T16:55:24.472Z,-1.70
2022-12-16T16:58:10.758Z,-1.70
2022-12-16T17:00:57.071Z,-1.70
2022-12-16T17:03:43.159Z,-1.70
2022-12-16T17:06:31.459Z,-1.70
2022-12-16T17:09:17.084Z,-1.70
2022-12-16T17:12:03.323Z,-1.70
2022-12-16T17:14:49.138Z,-1.80
2022-12-16T17:17:35.300Z,-1.80
2022-12-16T17:20:20.924Z,-1.80
2022-12-16T17:23:08.433Z,-1.80
2022-12-16T17:25:54.356Z,-1.90
2022-12-16T17:28:42.482Z,-2.00
2022-12-16T17:31:29.966Z,-2.10
2022-12-16T17:34:15.900Z,-2.20
2022-12-16T17:37:01.423Z,-2.20
2022-12-16T17:39:49.037Z,-2.20
2022-12-16T17:42:34.647Z,-2.30
2022-12-16T17:45:20.520Z,-2.20
2022-12-16T17:48:06.299Z,-2.30
2022-12-16T17:50:52.646Z,-2.30
2022-12-16T17:53:38.147Z,-2.20
2022-12-16T17:56:26.103Z,-2.20
2022-12-16T17:59:11.787Z,-2.20
2022-12-16T18:01:57.792Z,-2.20
2022-12-16T18:04:43.392Z,-2.20
2022-12-16T18:07:29.532Z,-2.20
2022-12-16T18:10:15.154Z,-2.20
2022-12-16T18:13:02.497Z,-2.20
2022-12-16T18:15:48.365Z,-2.20
2022-12-16T18:18:34.256Z,-2.20
2022-12-16T18:21:28.503Z,-2.10
2022-12-16T18:24:14.439Z,-2.10
2022-12-16T18:27:00.735Z,-2.10
2022-12-16T18:29:47.271Z,-2.20
2022-12-16T18:32:35.382Z,-2.20
2022-12-16T18:35:22.186Z,-2.20
2022-12-16T18:38:11.009Z,-2.20
2022-12-16T18:40:59.429Z,-2.30
2022-12-16T18:43:45.033Z,-2.30
2022-12-16T18:46:32.772Z,-2.40
2022-12-16T18:49:32.967Z,-2.40
2022-12-16T18:52:18.985Z,-2.40
2022-12-16T18:55:05.178Z,-2.40
2022-12-16T18:57:51.527Z,-2.40
2022-12-16T19:00:37.282Z,-2.40
2022-12-16T19:03:25.037Z,-2.40
2022-12-16T19:06:14.003Z,-2.40
2022-12-16T19:09:00.373Z,-2.40
2022-12-16T19:11:46.560Z,-2.40
2022-12-16T19:14:47.308Z,-2.40
2022-12-16T19:17:33.151Z,-2.40
2022-12-16T19:20:20.611Z,-2.40
2022-12-16T19:23:06.845Z,-2.40
2022-12-16T19:25:53.246Z,-2.50
2022-12-16T19:28:39.648Z,-2.50
2022-12-16T19:31:29.605Z,-2.50
2022-12-16T19:34:18.695Z,-2.60
2022-12-16T19:37:06.155Z,-2.50
2022-12-16T19:39:51.861Z,-2.60
2022-12-16T19:42:37.920Z,-2.60
2022-12-16T19:45:24.690Z,-2.70
2022-12-16T19:48:18.048Z,-2.70
2022-12-16T19:51:03.827Z,-2.70
2022-12-16T19:53:51.537Z,-2.80
2022-12-16T19:56:37.437Z,-2.70
2022-12-16T19:59:23.356Z,-2.80
2022-12-16T20:02:09.174Z,-2.80
2022-12-16T20:04:56.195Z,-2.80
2022-12-16T20:07:42.141Z,-2.70
2022-12-16T20:10:29.517Z,-2.80
2022-12-16T20:16:29.188Z,-2.70
2022-12-16T20:19:15.076Z,-2.70
2022-12-16T20:22:06.507Z,-2.70
2022-12-16T20:24:56.377Z,-2.70
2022-12-16T20:27:43.938Z,-2.80
2022-12-16T20:30:45.236Z,-2.80
2022-12-16T20:33:32.280Z,-2.80
2022-12-16T20:36:20.052Z,-2.80
2022-12-16T20:39:06.406Z,-2.80
2022-12-16T20:41:55.958Z,-2.80
2022-12-16T20:44:43.978Z,-2.80
2022-12-16T20:47:26.219Z,-2.80
2022-12-16T20:50:12.282Z,-2.80
2022-12-16T20:52:58.404Z,-2.80
2022-12-16T20:55:44.527Z,-2.80
2022-12-16T20:58:35.198Z,-2.80
2022-12-16T21:01:23.200Z,-2.80
2022-12-16T21:04:09.281Z,-2.70
2022-12-16T21:06:56.173Z,-2.80
2022-12-16T21:09:42.078Z,-2.80
2022-12-16T21:12:28.199Z,-2.80
2022-12-16T21:14:42.213Z,-2.70
2022-12-16T21:15:14.057Z,-2.80
2022-12-16T21:18:02.173Z,-2.80
2022-12-16T21:20:48.055Z,-2.90
2022-12-16T21:23:34.186Z,-2.90
2022-12-16T21:26:20.180Z,-2.90
2022-12-16T21:29:06.325Z,-2.90
2022-12-16T21:31:51.853Z,-2.90
2022-12-16T21:34:41.008Z,-2.90
2022-12-16T21:37:41.329Z,-3.00
2022-12-16T21:40:28.727Z,-3.00
2022-12-16T21:43:14.470Z,-3.00
2022-12-16T21:46:00.424Z,-3.00
2022-12-16T21:48:46.807Z,-2.90
2022-12-16T21:51:30.547Z,-2.90
2022-12-16T21:54:16.127Z,-2.90
2022-12-16T21:57:02.431Z,-2.90
2022-12-16T21:59:48.436Z,-2.90
2022-12-16T22:02:34.475Z,-2.90
2022-12-16T22:05:20.220Z,-2.90
2022-12-16T22:08:08.238Z,-2.80
2022-12-16T22:10:54.255Z,-2.80
2022-12-16T22:13:42.754Z,-2.80
2022-12-16T22:16:28.701Z,-2.80
2022-12-16T22:19:14.615Z,-2.90
2022-12-16T22:22:01.700Z,-2.90
2022-12-16T22:24:49.540Z,-2.90
2022-12-16T22:27:35.627Z,-3.00
2022-12-16T22:30:22.227Z,-2.90
2022-12-16T22:33:08.564Z,-2.90
2022-12-16T22:36:10.340Z,-2.90
2022-12-16T22:38:56.509Z,-2.90
2022-12-16T22:41:43.902Z,-2.90
2022-12-16T22:44:29.907Z,-2.90
2022-12-16T22:47:16.042Z,-2.80
2022-12-16T22:50:01.851Z,-2.80
2022-12-16T22:52:48.158Z,-2.80
2022-12-16T22:55:34.173Z,-2.80
2022-12-16T22:58:26.410Z,-2.80
2022-12-16T23:01:12.614Z,-2.80
2022-12-16T23:03:58.979Z,-2.80
2022-12-16T23:06:44.686Z,-2.90
2022-12-16T23:09:31.073Z,-2.90
2022-12-16T23:12:16.911Z,-3.00
2022-12-16T23:15:04.479Z,-3.00
2022-12-16T23:17:58.817Z,-3.00
2022-12-16T23:20:44.758Z,-3.00
2022-12-16T23:23:39.760Z,-3.00
2022-12-16T23:26:26.104Z,-3.00
2022-12-16T23:29:12.807Z,-2.90
2022-12-16T23:31:59.828Z,-2.90
2022-12-16T23:34:46.467Z,-2.90
2022-12-16T23:37:32.627Z,-2.90
2022-12-16T23:40:18.105Z,-2.90
2022-12-16T23:43:05.650Z,-2.90
2022-12-16T23:45:51.812Z,-2.90
2022-12-16T23:48:39.016Z,-2.90
2022-12-16T23:51:24.793Z,-2.90
2022-12-16T23:54:11.163Z,-2.90
2022-12-16T23:56:56.945Z,-2.90
2022-12-16T23:59:43.030Z,-2.90
